Time;durP1;ratioP1;P1;durP2;ratioP2;P2;SDS_P1;SDS_P2;PMS_P1;PMS_P2;Temp;Humidity;BMP_temperature;BMP_pressure;BME280_temperature;BME280_humidity;BME280_pressure;Samples;Min_cycle;Max_cycle;Signal;HPM_P1;HPM_P2
2023/06/18 08:57:38;;;;;;;6.95;5.25;;;;;;;22.72;49.29;101074.22;5150107;27;20127;-73
2023/06/18 09:00:06;;;;;;;9.27;6.03;;;;;;;22.68;49.36;101078.69;5133105;27;20031;-72
2023/06/18 09:02:32;;;;;;;12.57;5.97;;;;;;;22.67;49.75;101077.03;5095231;28;20039;-72
2023/06/18 09:05:03;;;;;;;8.82;5.65;;;;;;;22.70;49.96;101087.47;5110213;28;20016;-73
2023/06/18 09:07:29;;;;;;;15.50;6.13;;;;;;;22.72;49.97;101090.75;5098034;28;20024;-72
2023/06/18 09:09:55;;;;;;;12.35;5.90;;;;;;;22.74;50.32;101088.50;5071336;28;20027;-70
2023/06/18 09:12:20;;;;;;;12.07;6.10;;;;;;;22.76;50.52;101085.44;5071504;28;20035;-72
2023/06/18 09:14:46;;;;;;;9.73;5.90;;;;;;;22.85;50.71;101091.91;5071506;28;20031;-73
2023/06/18 09:17:12;;;;;;;10.20;5.45;;;;;;;22.90;51.13;101091.81;5099046;28;20035;-71
2023/06/18 09:19:37;;;;;;;9.70;5.90;;;;;;;22.90;50.64;101086.28;5096010;28;20032;-71
2023/06/18 09:22:13;;;;;;;11.13;5.75;;;;;;;22.96;50.58;101090.63;5101660;28;20027;-71
2023/06/18 09:24:38;;;;;;;7.57;5.35;;;;;;;22.98;50.14;101082.84;5087306;28;20024;-74
2023/06/18 09:27:05;;;;;;;10.63;5.50;;;;;;;23.04;51.72;101085.50;5089312;28;20039;-72
2023/06/18 09:29:33;;;;;;;8.57;5.82;;;;;;;23.01;50.98;101092.47;5071007;28;20027;-72
2023/06/18 09:32:10;;;;;;;14.00;5.55;;;;;;;23.05;50.79;101087.97;5086575;28;20024;-74
2023/06/18 09:34:36;;;;;;;9.57;4.90;;;;;;;23.08;51.07;101086.53;5087820;28;20035;-75
2023/06/18 09:37:03;;;;;;;6.45;4.93;;;;;;;23.08;51.10;101092.88;5070695;28;20031;-75
2023/06/18 09:39:29;;;;;;;6.70;5.32;;;;;;;23.08;51.00;101092.88;5070793;28;20519;-72
2023/06/18 09:41:55;;;;;;;10.88;5.03;;;;;;;23.02;52.63;101083.06;5068885;28;20112;-71
2023/06/18 09:44:22;;;;;;;5.95;5.30;;;;;;;23.06;52.17;101089.59;5086006;28;20160;-73
2023/06/18 09:46:50;;;;;;;13.68;5.57;;;;;;;23.04;53.96;101100.16;5088784;28;20076;-73
2023/06/18 09:49:17;;;;;;;9.80;5.68;;;;;;;23.08;54.29;101086.53;5070383;28;20367;-71
2023/06/18 09:51:43;;;;;;;8.38;5.43;;;;;;;23.05;54.25;101093.47;5063337;28;20028;-70
2023/06/18 09:54:09;;;;;;;8.75;5.72;;;;;;;23.04;56.74;101091.03;5088771;28;20091;-71
2023/06/18 09:56:36;;;;;;;11.05;6.18;;;;;;;22.97;59.51;101083.16;5064584;28;20080;-71
2023/06/18 09:59:03;;;;;;;8.20;6.30;;;;;;;22.96;56.60;101090.63;5068406;28;20032;-72
2023/06/18 10:01:42;;;;;;;12.95;6.55;;;;;;;22.89;58.51;101084.69;5064869;28;20044;-71
2023/06/18 10:04:08;;;;;;;6.85;6.03;;;;;;;22.71;68.49;101072.56;5081651;28;20028;-70
2023/06/18 10:06:34;;;;;;;8.48;6.53;;;;;;;22.73;67.96;101070.31;5078437;28;20028;-69
2023/06/18 10:09:00;;;;;;;8.00;6.78;;;;;;;22.63;76.04;101076.84;5074212;28;20031;-69
2023/06/18 10:11:26;;;;;;;11.05;6.47;;;;;;;22.62;79.12;101074.38;5073672;28;20020;-70
2023/06/18 10:14:05;;;;;;;7.68;6.95;;;;;;;22.70;68.31;101064.59;5074174;28;20038;-69
2023/06/18 10:16:32;;;;;;;10.90;6.38;;;;;;;22.67;79.54;101060.50;5070746;28;20029;-71
2023/06/18 10:19:13;;;;;;;7.15;5.72;;;;;;;22.66;71.80;101056.09;5070905;28;20082;-70
2023/06/18 10:21:46;;;;;;;8.07;5.88;;;;;;;22.62;87.05;101057.84;5071608;28;20368;-72
2023/06/18 10:24:16;;;;;;;6.82;5.50;;;;;;;22.62;73.49;101049.56;5074604;28;20025;-68
2023/06/18 10:26:42;;;;;;;13.20;5.93;;;;;;;22.68;87.39;101040.06;5070232;28;20114;-70
2023/06/18 10:29:10;;;;;;;8.63;6.72;;;;;;;22.76;75.63;101036.59;5073115;28;20065;-72
2023/06/18 10:31:36;;;;;;;12.02;6.93;;;;;;;22.77;71.78;101027.22;5074413;28;20452;-72
2023/06/18 10:34:02;;;;;;;7.90;6.05;;;;;;;22.76;83.09;101035.78;5071707;28;20509;-73
2023/06/18 10:36:28;;;;;;;10.18;6.50;;;;;;;22.79;78.58;101030.47;5073298;28;20023;-68
2023/06/18 10:38:55;;;;;;;11.15;6.88;;;;;;;22.83;82.02;101036.22;5073581;28;20029;-72
2023/06/18 10:41:21;;;;;;;10.32;6.50;;;;;;;22.86;78.66;101040.28;5074493;28;20059;-71
2023/06/18 10:43:51;;;;;;;8.82;6.60;;;;;;;22.91;78.40;101038.28;5074641;28;20060;-71
2023/06/18 10:46:17;;;;;;;12.13;6.57;;;;;;;22.92;86.83;101039.13;5073373;28;20056;-70
2023/06/18 10:49:13;;;;;;;10.02;6.55;;;;;;;23.01;75.76;101034.53;5073575;28;20021;-70
2023/06/18 10:51:38;;;;;;;9.40;6.60;;;;;;;23.04;76.35;101035.84;5073244;28;20070;-72
2023/06/18 10:54:22;;;;;;;9.02;6.18;;;;;;;23.18;72.45;101034.75;5073908;28;20392;-71
2023/06/18 10:56:55;;;;;;;8.20;6.30;;;;;;;23.25;71.95;101036.28;5068885;28;20403;-70
2023/06/18 10:59:43;;;;;;;10.30;6.60;;;;;;;23.31;69.64;101033.13;5055576;28;20111;-69
2023/06/18 11:02:11;;;;;;;8.07;5.95;;;;;;;23.29;73.24;101031.78;5060600;28;20550;-70
2023/06/18 11:04:36;;;;;;;8.48;5.63;;;;;;;23.32;70.54;101031.19;5073592;28;20028;-72
2023/06/18 11:07:25;;;;;;;7.90;6.03;;;;;;;23.35;69.33;101027.81;5068686;28;20073;-68
2023/06/18 11:09:53;;;;;;;8.85;6.75;;;;;;;23.32;66.72;101023.72;5053512;28;20025;-69
2023/06/18 11:12:28;;;;;;;6.63;5.80;;;;;;;23.36;70.90;101021.16;5053856;28;20116;-70
2023/06/18 11:15:11;;;;;;;6.00;5.35;;;;;;;23.42;68.08;101008.88;5053569;28;20021;-69
2023/06/18 11:17:38;;;;;;;8.40;5.65;;;;;;;23.31;77.72;101018.50;5063624;28;20074;-69
2023/06/18 11:20:05;;;;;;;5.55;5.00;;;;;;;23.38;71.51;101001.53;5068128;28;20025;-68
2023/06/18 11:22:31;;;;;;;7.38;5.75;;;;;;;23.43;68.38;101005.00;5060018;28;20447;-68
2023/06/18 11:25:00;;;;;;;6.75;6.05;;;;;;;23.41;68.33;101000.91;5071860;28;20115;-68
2023/06/18 11:27:26;;;;;;;8.55;6.38;;;;;;;23.35;72.14;100995.47;5065232;28;20033;-68
2023/06/18 11:29:56;;;;;;;9.68;5.38;;;;;;;23.34;67.20;100998.53;5051822;28;20041;-68
2023/06/18 11:32:23;;;;;;;9.73;5.57;;;;;;;23.29;68.64;101010.50;5052042;28;20511;-68
2023/06/18 11:34:48;;;;;;;9.95;5.97;;;;;;;23.30;80.86;100997.56;5053186;28;20036;-68
2023/06/18 11:37:15;;;;;;;9.60;6.10;;;;;;;23.32;74.25;100989.75;5056933;28;20028;-68
2023/06/18 11:39:41;;;;;;;8.27;7.05;;;;;;;23.35;74.00;100981.66;5072175;28;20031;-68
2023/06/18 11:42:20;;;;;;;9.60;7.78;;;;;;;23.41;74.37;100985.16;5073160;28;20028;-68
2023/06/18 11:44:50;;;;;;;7.95;6.20;;;;;;;23.43;68.57;100985.69;5072955;28;20028;-69
2023/06/18 11:47:16;;;;;;;9.70;6.75;;;;;;;23.47;75.53;100978.38;5071996;28;20024;-69
2023/06/18 11:49:45;;;;;;;7.07;6.43;;;;;;;23.52;74.47;100972.78;5069780;28;20062;-68
2023/06/18 11:52:12;;;;;;;9.02;6.72;;;;;;;23.59;71.37;100974.28;5072641;28;20017;-69
2023/06/18 11:54:39;;;;;;;7.18;6.20;;;;;;;23.63;74.00;100967.03;5072560;28;20028;-69
2023/06/18 11:57:06;;;;;;;9.15;6.03;;;;;;;23.61;82.08;100964.56;5089481;28;20605;-71
2023/06/18 11:59:32;;;;;;;6.90;5.80;;;;;;;23.76;71.38;100963.38;5073640;28;20046;-69
2023/06/18 12:02:11;;;;;;;7.93;5.53;;;;;;;23.80;67.92;100961.63;5059649;28;20476;-71
2023/06/18 12:04:37;;;;;;;8.18;6.13;;;;;;;23.94;66.05;100966.34;5088746;28;20020;-68
2023/06/18 12:07:03;;;;;;;10.23;6.78;;;;;;;23.99;68.05;100961.50;5073165;28;20026;-69
2023/06/18 12:09:33;;;;;;;6.53;5.50;;;;;;;24.04;65.91;100953.09;5089350;28;20032;-74
2023/06/18 12:12:09;;;;;;;6.53;5.77;;;;;;;24.17;64.64;100950.56;5088887;28;20032;-70
2023/06/18 12:14:46;;;;;;;6.70;5.20;;;;;;;24.24;64.15;100946.22;5091056;28;20466;-71
2023/06/18 12:17:23;;;;;;;6.25;5.47;;;;;;;24.31;64.61;100950.50;5087881;28;20032;-71
2023/06/18 12:19:58;;;;;;;8.43;5.65;;;;;;;24.35;63.50;100951.50;5054419;28;20031;-72
2023/06/18 12:22:24;;;;;;;9.05;5.63;;;;;;;24.42;61.61;100943.56;5084204;28;20458;-71
2023/06/18 12:24:49;;;;;;;8.77;5.80;;;;;;;24.57;60.76;100940.38;5092502;28;20077;-73
2023/06/18 12:27:17;;;;;;;10.10;6.68;;;;;;;24.73;61.03;100951.06;5089191;28;20029;-73
2023/06/18 12:29:45;;;;;;;9.48;5.50;;;;;;;24.77;61.07;100938.22;5065485;28;20115;-69
2023/06/18 12:32:12;;;;;;;5.72;4.85;;;;;;;24.83;59.84;100945.25;5073505;28;20032;-70
2023/06/18 12:34:37;;;;;;;6.40;4.75;;;;;;;24.85;60.83;100942.16;5073334;28;20028;-69
2023/06/18 12:37:03;;;;;;;6.65;5.70;;;;;;;24.80;58.10;100937.59;5074193;28;20111;-69
2023/06/18 12:39:28;;;;;;;6.60;5.60;;;;;;;24.80;58.35;100932.06;5085083;28;20391;-69
2023/06/18 12:41:55;;;;;;;8.40;5.68;;;;;;;24.85;58.48;100943.00;5072164;28;20085;-73
2023/06/18 12:44:21;;;;;;;8.20;5.65;;;;;;;24.75;56.80;100933.03;5090814;28;20069;-71
2023/06/18 12:46:47;;;;;;;7.20;5.43;;;;;;;24.76;57.44;100936.63;5091348;28;20062;-71
2023/06/18 12:49:17;;;;;;;8.20;5.10;;;;;;;24.74;59.12;100930.56;5092675;28;20055;-69
2023/06/18 12:51:46;;;;;;;5.47;4.97;;;;;;;24.74;56.83;100930.56;5077888;28;20024;-71
2023/06/18 12:54:17;;;;;;;7.57;5.00;;;;;;;24.73;56.92;100935.31;5071965;28;20046;-69
2023/06/18 12:56:53;;;;;;;7.78;4.72;;;;;;;24.75;56.08;100926.69;5072855;28;20040;-70
2023/06/18 12:59:22;;;;;;;11.13;4.97;;;;;;;24.72;55.69;100930.09;5089686;28;20107;-69
2023/06/18 13:01:48;;;;;;;6.35;4.80;;;;;;;24.76;57.01;100931.91;5066889;28;20078;-71
2023/06/18 13:04:16;;;;;;;6.25;4.63;;;;;;;24.76;54.08;100934.66;5074482;28;20142;-68
2023/06/18 13:06:42;;;;;;;7.18;4.50;;;;;;;24.77;56.83;100936.31;5090378;28;20039;-68
2023/06/18 13:09:08;;;;;;;5.63;5.03;;;;;;;24.80;56.96;100934.81;5092596;28;20020;-66
2023/06/18 13:11:33;;;;;;;5.35;4.82;;;;;;;24.72;55.45;100924.56;5092368;28;20048;-67
2023/06/18 13:13:59;;;;;;;9.13;4.80;;;;;;;24.75;56.11;100927.50;5091352;28;20031;-68
2023/06/18 13:16:25;;;;;;;10.75;5.50;;;;;;;24.69;54.79;100925.19;5092448;28;20038;-69
2023/06/18 13:18:50;;;;;;;5.38;4.88;;;;;;;24.70;56.32;100924.88;5091157;28;20027;-69
2023/06/18 13:21:15;;;;;;;8.50;5.28;;;;;;;24.72;56.21;100932.84;5089413;28;20048;-67
2023/06/18 13:23:41;;;;;;;9.18;5.32;;;;;;;24.67;57.29;100916.38;5091629;28;20115;-70
2023/06/18 13:26:07;;;;;;;7.00;5.25;;;;;;;24.63;56.52;100918.16;5074030;28;20020;-70
2023/06/18 13:28:32;;;;;;;8.38;5.53;;;;;;;24.53;56.27;100914.53;5091323;28;20516;-69
2023/06/18 13:30:58;;;;;;;9.70;5.57;;;;;;;24.54;54.70;100913.38;5089833;28;20020;-66
2023/06/18 13:33:23;;;;;;;7.20;4.80;;;;;;;24.52;54.30;100909.31;5092408;28;20114;-67
2023/06/18 13:35:49;;;;;;;7.97;5.18;;;;;;;24.49;56.10;100904.38;5092008;28;20107;-69
2023/06/18 13:38:14;;;;;;;7.47;4.97;;;;;;;24.56;55.82;100901.97;5091531;28;20028;-66
2023/06/18 13:40:40;;;;;;;5.40;4.82;;;;;;;24.56;55.97;100904.75;5091307;28;20285;-67
2023/06/18 13:43:05;;;;;;;6.97;5.40;;;;;;;24.61;54.14;100906.59;5094096;28;20050;-71
2023/06/18 13:45:30;;;;;;;6.90;5.00;;;;;;;24.61;53.76;100901.06;5094871;28;20020;-67
2023/06/18 13:47:56;;;;;;;7.27;5.60;;;;;;;24.59;53.21;100898.59;5096144;28;20447;-68
2023/06/18 13:50:21;;;;;;;5.97;5.28;;;;;;;24.55;53.11;100889.31;5094007;28;20356;-69
2023/06/18 13:52:46;;;;;;;6.60;5.30;;;;;;;24.52;53.47;100890.75;5095609;28;20020;-65
2023/06/18 13:55:12;;;;;;;10.65;5.47;;;;;;;24.47;54.42;100887.28;5095352;28;20048;-68
2023/06/18 13:57:37;;;;;;;8.82;5.63;;;;;;;24.45;54.56;100890.38;5095949;28;20028;-70
2023/06/18 14:00:03;;;;;;;11.30;5.50;;;;;;;24.45;55.20;100879.31;5075611;28;20019;-66
2023/06/18 14:02:29;;;;;;;6.45;5.18;;;;;;;24.48;53.97;100877.88;5085018;28;20048;-66
2023/06/18 14:04:54;;;;;;;8.48;5.70;;;;;;;24.53;53.12;100875.78;5095721;28;20027;-69
2023/06/18 14:07:20;;;;;;;6.18;5.13;;;;;;;24.63;53.29;100871.13;5095246;28;20073;-68
2023/06/18 14:09:46;;;;;;;5.60;5.10;;;;;;;24.68;54.78;100868.22;5088500;28;20028;-69
2023/06/18 14:12:12;;;;;;;7.28;5.45;;;;;;;24.70;52.87;100874.22;5088595;28;20036;-68
2023/06/18 14:14:38;;;;;;;6.45;5.47;;;;;;;24.67;52.13;100872.94;5090827;28;20026;-71
2023/06/18 14:17:09;;;;;;;8.27;5.20;;;;;;;24.61;53.84;100871.47;5077568;28;20024;-69
2023/06/18 14:19:36;;;;;;;8.25;5.18;;;;;;;24.66;52.74;100873.25;5092312;28;20025;-69
2023/06/18 14:22:01;;;;;;;7.55;5.63;;;;;;;24.62;52.21;100875.84;5086376;28;20066;-69
2023/06/18 14:24:27;;;;;;;6.72;5.32;;;;;;;24.62;52.94;100872.25;5088191;28;20443;-68
2023/06/18 14:26:52;;;;;;;10.05;5.70;;;;;;;24.59;53.00;100874.53;5094571;28;20106;-68
2023/06/18 14:29:18;;;;;;;7.88;5.18;;;;;;;24.52;54.37;100879.69;5086680;28;20073;-68
2023/06/18 14:31:44;;;;;;;11.93;6.03;;;;;;;24.51;52.65;100880.00;5095259;28;20060;-68
2023/06/18 14:34:13;;;;;;;9.05;5.32;;;;;;;24.47;52.72;100871.50;5094980;28;20028;-68
2023/06/18 14:36:39;;;;;;;9.20;5.63;;;;;;;24.42;53.20;100874.44;5091387;28;20016;-70
2023/06/18 14:39:05;;;;;;;9.57;5.50;;;;;;;24.36;54.00;100870.16;5093014;28;20340;-67
2023/06/18 14:41:31;;;;;;;8.38;5.47;;;;;;;24.36;52.83;100873.75;5095072;28;20024;-66
2023/06/18 14:43:56;;;;;;;7.82;5.50;;;;;;;24.31;54.23;100879.41;5094696;28;20032;-67
2023/06/18 14:46:22;;;;;;;7.70;5.38;;;;;;;24.29;53.74;100878.09;5092654;28;20036;-69
2023/06/18 14:48:47;;;;;;;7.22;5.63;;;;;;;24.26;53.33;100875.97;5093617;28;20027;-68
2023/06/18 14:51:13;;;;;;;9.48;5.88;;;;;;;24.24;52.97;100865.22;5089742;28;20028;-68
2023/06/18 14:53:38;;;;;;;9.70;5.82;;;;;;;24.24;52.13;100879.84;5063103;28;20451;-68
2023/06/18 14:56:04;;;;;;;7.65;5.50;;;;;;;24.28;51.66;100868.16;5078709;28;20072;-68
2023/06/18 14:58:29;;;;;;;6.97;5.82;;;;;;;24.32;51.98;100869.16;5087572;28;20020;-68
2023/06/18 15:00:55;;;;;;;7.50;6.30;;;;;;;24.36;51.34;100867.41;5088074;28;20031;-69
2023/06/18 15:03:20;;;;;;;9.90;5.88;;;;;;;24.49;51.10;100863.72;5064497;28;20089;-70
2023/06/18 15:05:45;;;;;;;6.65;5.50;;;;;;;24.64;51.38;100864.44;5074256;28;20104;-68
2023/06/18 15:08:11;;;;;;;8.68;5.80;;;;;;;24.86;50.77;100844.19;5084352;28;20031;-69
2023/06/18 15:10:36;;;;;;;8.63;5.47;;;;;;;25.10;50.83;100847.31;5075423;28;20020;-73
2023/06/18 15:13:01;;;;;;;9.95;5.60;;;;;;;25.56;49.90;100841.47;5082790;28;20034;-72
2023/06/18 15:15:27;;;;;;;7.00;5.50;;;;;;;25.86;48.99;100850.72;5078179;28;20086;-70
2023/06/18 15:17:52;;;;;;;12.15;6.57;;;;;;;25.75;47.14;100838.38;5093096;28;20020;-70
2023/06/18 15:20:18;;;;;;;12.65;6.22;;;;;;;25.71;47.22;100834.63;5086370;28;20028;-71
2023/06/18 15:22:43;;;;;;;12.95;6.32;;;;;;;25.62;47.65;100842.94;5066350;28;20359;-72
2023/06/18 15:25:09;;;;;;;9.45;6.15;;;;;;;25.58;47.40;100836.44;5066953;28;20047;-73
2023/06/18 15:27:36;;;;;;;11.00;6.60;;;;;;;25.49;47.89;100839.22;5085311;28;20055;-69
2023/06/18 15:30:02;;;;;;;9.40;5.53;;;;;;;25.49;48.66;100832.88;5093293;28;20032;-70
2023/06/18 15:32:27;;;;;;;14.75;5.97;;;;;;;25.60;46.93;100832.19;5082257;28;20028;-71
2023/06/18 15:34:53;;;;;;;9.25;6.78;;;;;;;25.68;47.13;100835.28;5084614;28;20363;-72
2023/06/18 15:37:19;;;;;;;11.25;6.07;;;;;;;25.83;47.22;100837.53;5082339;28;20020;-72
2023/06/18 15:39:47;;;;;;;9.85;5.68;;;;;;;25.85;47.64;100834.44;5062953;28;20027;-71
2023/06/18 15:42:13;;;;;;;9.02;5.47;;;;;;;25.93;47.66;100837.19;5067557;28;20074;-70
2023/06/18 15:44:39;;;;;;;8.35;5.45;;;;;;;25.94;47.18;100824.97;5079280;28;20028;-69
2023/06/18 15:47:05;;;;;;;6.32;5.22;;;;;;;25.89;46.02;100839.00;5065868;28;20023;-68
2023/06/18 15:49:31;;;;;;;6.97;5.30;;;;;;;25.84;45.20;100830.84;5071454;28;20027;-70
2023/06/18 15:51:56;;;;;;;7.07;5.40;;;;;;;25.85;46.06;100826.13;5091710;28;20024;-70
2023/06/18 15:54:21;;;;;;;6.47;5.10;;;;;;;25.83;45.52;100827.28;5075426;28;20459;-69
2023/06/18 15:56:47;;;;;;;9.05;5.70;;;;;;;25.79;45.84;100831.03;5070198;28;20445;-70
2023/06/18 15:59:12;;;;;;;6.45;5.15;;;;;;;25.74;45.63;100831.19;5073030;28;20069;-71
2023/06/18 16:01:38;;;;;;;11.27;5.18;;;;;;;25.66;44.90;100821.75;5069897;28;20051;-71
2023/06/18 16:04:03;;;;;;;7.45;4.82;;;;;;;25.58;46.38;100826.16;5083768;28;20548;-70
2023/06/18 16:06:29;;;;;;;5.82;4.85;;;;;;;25.56;45.61;100822.91;5091807;28;20039;-71
